createdAt,value
2022-11-03T00:01:51.375Z,3.63
2022-11-03T00:04:21.052Z,4.28
2022-11-03T00:06:53.747Z,2.35
2022-11-03T00:09:22.058Z,2.28
2022-11-03T00:11:53.241Z,3.03
2022-11-03T00:16:47.649Z,2.78
2022-11-03T00:19:17.521Z,4.50
2022-11-03T00:21:45.324Z,2.85
2022-11-03T00:24:12.976Z,5.82
2022-11-03T00:26:40.347Z,3.25
2022-11-03T00:29:09.835Z,3.83
2022-11-03T00:31:38.767Z,3.83
2022-11-03T00:34:07.403Z,5.78
2022-11-03T00:36:36.783Z,8.63
2022-11-03T00:39:05.028Z,3.63
2022-11-03T00:41:32.558Z,4.93
2022-11-03T00:43:59.917Z,3.53
2022-11-03T00:46:27.408Z,4.78
2022-11-03T00:48:54.223Z,4.25
2022-11-03T00:51:23.782Z,3.85
2022-11-03T00:53:58.595Z,5.18
2022-11-03T00:56:27.085Z,6.07
2022-11-03T00:58:55.213Z,5.70
2022-11-03T01:01:33.628Z,5.55
2022-11-03T01:04:19.473Z,5.07
2022-11-03T01:06:52.042Z,3.97
2022-11-03T01:09:29.831Z,5.28
2022-11-03T01:12:01.530Z,3.47
2022-11-03T01:14:50.567Z,4.78
2022-11-03T01:17:23.380Z,4.13
2022-11-03T01:19:50.906Z,4.10
2022-11-03T01:22:18.466Z,4.82
2022-11-03T01:24:46.070Z,6.03
2022-11-03T01:27:15.934Z,4.68
2022-11-03T01:29:43.530Z,4.25
2022-11-03T01:32:11.186Z,5.30
2022-11-03T01:34:39.631Z,4.97
2022-11-03T01:37:07.114Z,4.63
2022-11-03T01:39:34.362Z,4.38
2022-11-03T01:42:01.565Z,4.32
2022-11-03T01:44:34.073Z,4.53
2022-11-03T01:47:07.914Z,4.03
2022-11-03T01:49:46.704Z,4.35
2022-11-03T01:52:36.409Z,4.75
2022-11-03T01:55:13.232Z,2.58
2022-11-03T01:57:45.361Z,3.70
2022-11-03T02:00:12.899Z,4.43
2022-11-03T02:02:40.983Z,4.55
2022-11-03T02:05:10.657Z,4.57
2022-11-03T02:07:40.009Z,3.95
2022-11-03T02:10:07.310Z,4.07
2022-11-03T02:12:35.186Z,3.92
2022-11-03T02:15:08.339Z,4.60
2022-11-03T02:17:37.881Z,4.05
2022-11-03T02:20:11.415Z,3.80
2022-11-03T02:22:52.789Z,5.22
2022-11-03T02:25:49.066Z,6.30
2022-11-03T02:28:19.824Z,4.05
2022-11-03T02:30:50.878Z,5.22
2022-11-03T02:33:32.063Z,4.68
2022-11-03T02:36:14.001Z,2.78
2022-11-03T02:38:47.763Z,4.38
2022-11-03T02:41:16.473Z,3.92
2022-11-03T02:43:44.904Z,3.40
2022-11-03T02:46:14.954Z,3.53
2022-11-03T02:48:42.111Z,4.45
2022-11-03T02:51:09.024Z,3.00
2022-11-03T02:53:45.376Z,3.05
2022-11-03T02:56:20.718Z,5.53
2022-11-03T02:59:11.565Z,1.58
2022-11-03T03:01:48.347Z,5.00
2022-11-03T03:04:21.673Z,3.63
2022-11-03T03:07:00.301Z,2.60
2022-11-03T03:09:31.652Z,2.00
2022-11-03T03:12:01.530Z,2.90
2022-11-03T03:14:36.071Z,3.35
2022-11-03T03:17:12.202Z,3.40
2022-11-03T03:19:58.308Z,3.42
2022-11-03T03:22:34.379Z,4.05
2022-11-03T03:25:09.473Z,3.45
2022-11-03T03:27:42.262Z,5.68
2022-11-03T03:30:10.076Z,2.25
2022-11-03T03:32:39.985Z,3.78
2022-11-03T03:35:11.274Z,1.83
2022-11-03T03:37:41.440Z,2.53
2022-11-03T03:40:11.882Z,4.63
2022-11-03T03:42:40.983Z,1.83
2022-11-03T03:45:10.370Z,3.45
2022-11-03T03:47:37.423Z,3.92
2022-11-03T03:50:04.914Z,2.03
2022-11-03T03:52:34.845Z,2.55
2022-11-03T03:55:01.764Z,5.20
2022-11-03T03:57:32.007Z,4.65
2022-11-03T03:59:58.894Z,2.70
2022-11-03T04:02:25.747Z,3.72
2022-11-03T04:04:52.689Z,2.80
2022-11-03T04:07:42.499Z,2.58
2022-11-03T04:10:10.921Z,2.85
2022-11-03T04:12:56.379Z,2.33
2022-11-03T04:15:41.846Z,2.83
2022-11-03T04:18:27.479Z,1.95
2022-11-03T04:21:13.158Z,2.67
2022-11-03T04:23:40.021Z,1.90
2022-11-03T04:26:13.129Z,2.20
2022-11-03T04:28:41.347Z,2.70
2022-11-03T04:31:13.518Z,3.53
2022-11-03T04:33:41.947Z,1.25
2022-11-03T04:36:24.809Z,3.75
2022-11-03T04:38:52.434Z,2.03
2022-11-03T04:41:25.586Z,1.50
2022-11-03T04:43:53.615Z,2.65
2022-11-03T04:46:31.394Z,2.53
2022-11-03T04:49:01.179Z,2.50
2022-11-03T04:51:31.509Z,2.72
2022-11-03T04:54:13.446Z,3.53
2022-11-03T04:56:40.834Z,1.58
2022-11-03T04:59:15.649Z,1.67
2022-11-03T05:01:45.566Z,2.72
2022-11-03T05:04:15.385Z,1.48
2022-11-03T05:06:49.419Z,1.98
2022-11-03T05:09:21.173Z,3.33
2022-11-03T05:11:48.370Z,2.05
2022-11-03T05:14:20.153Z,1.48
2022-11-03T05:16:48.738Z,2.88
2022-11-03T05:19:40.419Z,1.45
2022-11-03T05:22:16.428Z,1.10
2022-11-03T05:24:44.302Z,1.80
2022-11-03T05:27:21.276Z,1.63
2022-11-03T05:29:50.253Z,2.05
2022-11-03T05:32:22.427Z,2.97
2022-11-03T05:34:51.967Z,2.63
2022-11-03T05:37:37.040Z,1.58
2022-11-03T05:40:17.784Z,2.17
2022-11-03T05:42:47.080Z,2.15
2022-11-03T05:45:21.247Z,1.45
2022-11-03T05:47:49.958Z,0.75
2022-11-03T05:50:21.392Z,2.08
2022-11-03T05:52:51.298Z,1.85
2022-11-03T05:55:33.596Z,1.20
2022-11-03T05:58:05.745Z,1.33
2022-11-03T06:00:37.799Z,0.88
2022-11-03T06:03:05.525Z,1.65
2022-11-03T06:05:34.697Z,1.90
2022-11-03T06:08:10.792Z,1.25
2022-11-03T06:10:45.483Z,3.05
2022-11-03T06:13:16.641Z,0.47
2022-11-03T06:18:15.680Z,1.48
2022-11-03T06:20:50.644Z,0.82
2022-11-03T06:23:19.914Z,1.48
2022-11-03T06:25:47.675Z,0.85
2022-11-03T06:28:37.202Z,1.13
2022-11-03T06:31:27.804Z,0.77
2022-11-03T06:33:57.806Z,1.88
2022-11-03T06:36:32.635Z,3.47
2022-11-03T06:39:04.669Z,1.17
2022-11-03T06:41:33.234Z,3.53
2022-11-03T06:44:03.458Z,2.38
2022-11-03T06:46:31.318Z,2.45
2022-11-03T06:49:00.732Z,6.40
2022-11-03T06:51:29.624Z,1.27
2022-11-03T06:54:00.033Z,0.30
2022-11-03T06:56:29.982Z,0.82
2022-11-03T06:58:57.785Z,1.90
2022-11-03T07:01:32.786Z,2.35
2022-11-03T07:04:13.394Z,2.53
2022-11-03T07:06:41.336Z,1.02
2022-11-03T07:09:15.437Z,1.23
2022-11-03T07:11:47.453Z,1.85
2022-11-03T07:14:22.364Z,3.38
2022-11-03T07:16:52.665Z,1.80
2022-11-03T07:19:29.664Z,3.70
2022-11-03T07:21:58.732Z,0.60
2022-11-03T07:24:40.469Z,7.38
2022-11-03T07:27:29.089Z,6.40
2022-11-03T07:30:06.252Z,1.67
2022-11-03T07:32:34.566Z,4.28
2022-11-03T07:35:12.763Z,2.15
2022-11-03T07:37:39.740Z,4.15
2022-11-03T07:40:14.453Z,13.77
2022-11-03T07:42:41.372Z,2.67
2022-11-03T07:45:39.537Z,2.15
2022-11-03T07:48:20.277Z,3.08
2022-11-03T07:50:52.062Z,4.05
2022-11-03T07:53:40.615Z,6.68
2022-11-03T07:56:15.147Z,2.22
2022-11-03T07:58:43.313Z,4.30
2022-11-03T08:01:44.286Z,2.85
2022-11-03T08:04:17.267Z,3.15
2022-11-03T08:06:44.549Z,1.73
2022-11-03T08:09:11.564Z,3.40
2022-11-03T08:11:38.533Z,2.42
2022-11-03T08:14:05.471Z,2.55
2022-11-03T08:16:32.395Z,1.15
2022-11-03T08:18:59.331Z,1.98
2022-11-03T08:21:26.270Z,1.98
2022-11-03T08:23:53.251Z,2.65
2022-11-03T08:26:20.727Z,1.95
2022-11-03T08:28:47.854Z,3.63
2022-11-03T08:31:15.209Z,3.72
2022-11-03T08:33:42.252Z,3.38
2022-11-03T08:36:10.166Z,5.93
2022-11-03T08:38:38.070Z,5.43
2022-11-03T08:41:05.275Z,4.03
2022-11-03T08:43:32.239Z,5.95
2022-11-03T08:46:09.725Z,1.88
2022-11-03T08:48:40.385Z,2.63
2022-11-03T08:51:08.707Z,2.88
2022-11-03T08:53:35.664Z,1.98
2022-11-03T08:56:02.723Z,3.00
2022-11-03T08:58:29.608Z,4.40
2022-11-03T09:00:56.508Z,2.28
2022-11-03T09:03:23.895Z,1.75
2022-11-03T09:05:51.239Z,4.28
2022-11-03T09:11:05.812Z,2.75
2022-11-03T09:13:32.725Z,2.25
2022-11-03T09:15:59.805Z,3.28
2022-11-03T09:18:26.717Z,2.63
2022-11-03T09:20:53.653Z,2.88
2022-11-03T09:23:20.883Z,3.03
2022-11-03T09:25:48.071Z,1.75
2022-11-03T09:28:15.296Z,2.83
2022-11-03T09:30:42.405Z,2.55
2022-11-03T09:33:09.567Z,2.70
2022-11-03T09:35:37.152Z,4.97
2022-11-03T09:38:04.285Z,3.53
2022-11-03T09:40:31.386Z,1.95
2022-11-03T09:42:58.642Z,2.30
2022-11-03T09:45:26.056Z,1.27
2022-11-03T09:47:53.182Z,1.05
2022-11-03T09:50:21.497Z,2.42
2022-11-03T09:52:51.691Z,4.90
2022-11-03T09:55:24.263Z,1.67
2022-11-03T09:57:54.876Z,2.45
2022-11-03T10:00:24.275Z,2.42
2022-11-03T10:02:52.108Z,2.80
2022-11-03T10:05:29.277Z,5.95
2022-11-03T10:08:03.607Z,4.10
2022-11-03T10:10:32.153Z,3.53
2022-11-03T10:13:00.734Z,6.38
2022-11-03T10:15:28.534Z,19.05
2022-11-03T10:17:56.823Z,13.38
2022-11-03T10:20:23.925Z,14.05
2022-11-03T10:22:53.707Z,8.80
2022-11-03T10:25:37.533Z,9.68
2022-11-03T10:28:24.394Z,19.88
2022-11-03T10:31:17.546Z,5.13
2022-11-03T10:33:55.504Z,9.23
2022-11-03T10:36:25.266Z,18.30
2022-11-03T10:38:53.076Z,16.25
2022-11-03T10:41:21.266Z,11.25
2022-11-03T10:44:11.376Z,15.00
2022-11-03T10:46:55.791Z,14.25
2022-11-03T10:49:23.068Z,11.88
2022-11-03T10:51:52.886Z,16.42
2022-11-03T10:54:23.372Z,8.43
2022-11-03T10:56:52.088Z,11.70
2022-11-03T10:59:32.007Z,6.90
2022-11-03T11:02:00.634Z,10.25
2022-11-03T11:04:28.039Z,7.53
2022-11-03T11:06:55.386Z,12.50
2022-11-03T11:09:27.474Z,6.80
2022-11-03T11:12:04.852Z,5.43
2022-11-03T11:14:35.131Z,7.55
2022-11-03T11:17:02.997Z,5.37
2022-11-03T11:19:31.187Z,5.50
2022-11-03T11:22:00.450Z,5.30
2022-11-03T11:24:45.617Z,11.85
2022-11-03T11:27:33.480Z,4.55
2022-11-03T11:30:05.401Z,7.68
2022-11-03T11:32:50.338Z,6.65
2022-11-03T11:35:23.561Z,6.30
2022-11-03T11:37:50.670Z,3.70
2022-11-03T11:40:20.227Z,7.40
2022-11-03T11:43:11.267Z,3.70
2022-11-03T11:46:15.837Z,3.47
2022-11-03T11:48:42.777Z,3.25
2022-11-03T11:51:12.321Z,8.13
2022-11-03T11:53:46.106Z,4.32
2022-11-03T11:56:16.736Z,5.70
2022-11-03T11:58:51.185Z,7.88
2022-11-03T12:01:33.056Z,5.63
2022-11-03T12:04:06.211Z,3.83
2022-11-03T12:06:42.902Z,3.35
2022-11-03T12:09:12.888Z,4.68
2022-11-03T12:12:08.960Z,2.40
2022-11-03T12:14:40.515Z,3.08
2022-11-03T12:17:19.453Z,3.50
2022-11-03T12:19:54.290Z,4.13
2022-11-03T12:22:24.184Z,4.30
2022-11-03T12:24:56.059Z,2.60
2022-11-03T12:27:25.846Z,4.03
2022-11-03T12:29:54.238Z,3.38
2022-11-03T12:32:37.402Z,8.77
2022-11-03T12:35:06.129Z,3.83
2022-11-03T12:37:33.307Z,9.88
2022-11-03T12:40:00.387Z,3.22
2022-11-03T12:42:27.469Z,6.55
2022-11-03T12:44:54.371Z,7.28
2022-11-03T12:47:21.322Z,5.38
2022-11-03T12:49:49.243Z,7.10
2022-11-03T12:52:16.348Z,10.48
2022-11-03T12:54:43.331Z,9.38
2022-11-03T12:57:10.257Z,7.32
2022-11-03T12:59:37.181Z,6.65
2022-11-03T13:02:04.582Z,5.60
2022-11-03T13:04:31.842Z,10.55
2022-11-03T13:06:58.911Z,13.57
2022-11-03T13:09:25.973Z,8.13
2022-11-03T13:12:11.710Z,9.32
2022-11-03T13:14:38.719Z,7.03
2022-11-03T13:17:05.637Z,5.93
2022-11-03T13:19:32.584Z,7.53
2022-11-03T13:22:00.408Z,6.32
2022-11-03T13:24:27.650Z,2.40
2022-11-03T13:26:54.832Z,3.00
2022-11-03T13:29:21.722Z,3.00
2022-11-03T13:31:48.792Z,3.15
2022-11-03T13:34:15.888Z,4.80
2022-11-03T13:36:42.921Z,6.38
2022-11-03T13:39:10.044Z,8.15
2022-11-03T13:41:36.917Z,6.38
2022-11-03T13:44:03.972Z,3.50
2022-11-03T13:46:30.992Z,4.97
2022-11-03T13:51:45.380Z,7.93
2022-11-03T13:59:46.878Z,7.72
2022-11-03T14:05:05.565Z,10.27
2022-11-03T14:07:34.391Z,10.40
2022-11-03T14:10:03.865Z,11.85
2022-11-03T14:12:31.469Z,6.88
2022-11-03T14:15:08.077Z,8.07
2022-11-03T14:17:36.422Z,11.35
2022-11-03T14:20:05.686Z,9.27
2022-11-03T14:22:33.196Z,6.97
2022-11-03T14:25:01.402Z,4.47
2022-11-03T14:27:28.904Z,8.32
2022-11-03T14:29:56.056Z,4.65
2022-11-03T14:32:23.209Z,4.68
2022-11-03T14:34:50.214Z,9.25
2022-11-03T14:37:17.559Z,3.15
2022-11-03T14:39:44.546Z,3.47
2022-11-03T14:42:16.176Z,6.43
2022-11-03T14:44:45.066Z,7.68
2022-11-03T14:47:14.325Z,13.93
2022-11-03T14:49:41.524Z,9.35
2022-11-03T14:52:08.834Z,11.27
2022-11-03T14:54:36.982Z,5.95
2022-11-03T14:57:05.444Z,6.03
2022-11-03T14:59:32.937Z,4.47
2022-11-03T15:02:00.831Z,8.00
2022-11-03T15:04:28.634Z,3.85
2022-11-03T15:06:55.971Z,7.05
2022-11-03T15:09:22.996Z,3.90
2022-11-03T15:11:50.189Z,5.82
2022-11-03T15:14:17.357Z,1.42
2022-11-03T15:16:46.327Z,2.80
2022-11-03T15:19:13.415Z,3.67
2022-11-03T15:21:40.655Z,3.75
2022-11-03T15:26:55.907Z,1.75
2022-11-03T15:29:24.512Z,2.28
2022-11-03T15:31:52.599Z,2.75
2022-11-03T15:34:19.715Z,4.65
2022-11-03T15:36:46.768Z,4.20
2022-11-03T15:39:13.947Z,6.78
2022-11-03T15:41:41.490Z,3.85
2022-11-03T15:44:08.598Z,4.57
2022-11-03T15:46:36.104Z,3.95
2022-11-03T15:49:03.781Z,4.57
2022-11-03T15:51:31.020Z,8.50
2022-11-03T15:53:59.223Z,1.10
2022-11-03T15:56:27.750Z,3.50
2022-11-03T15:58:54.723Z,6.38
2022-11-03T16:01:21.742Z,4.35
2022-11-03T16:03:48.841Z,5.72
2022-11-03T16:06:16.126Z,3.90
2022-11-03T16:08:43.260Z,4.05
2022-11-03T16:11:10.220Z,1.73
2022-11-03T16:13:37.406Z,3.13
2022-11-03T16:16:04.696Z,4.18
2022-11-03T16:18:31.692Z,3.28
2022-11-03T16:20:58.667Z,5.05
2022-11-03T16:23:25.552Z,10.25
2022-11-03T16:25:52.723Z,6.05
2022-11-03T16:28:19.759Z,6.18
2022-11-03T16:30:52.813Z,5.05
2022-11-03T16:33:21.211Z,5.25
2022-11-03T16:35:48.208Z,9.45
2022-11-03T16:38:15.755Z,5.43
2022-11-03T16:40:43.350Z,11.85
2022-11-03T16:43:11.177Z,6.32
2022-11-03T16:45:38.613Z,3.60
2022-11-03T16:48:07.030Z,2.92
2022-11-03T16:50:34.524Z,7.70
2022-11-03T16:53:01.527Z,6.07
2022-11-03T16:55:28.678Z,1.92
2022-11-03T16:57:55.755Z,2.55
2022-11-03T17:00:24.463Z,5.80
2022-11-03T17:02:51.628Z,3.05
2022-11-03T17:05:21.112Z,5.65
2022-11-03T17:07:53.311Z,14.70
2022-11-03T17:10:22.188Z,5.30
2022-11-03T17:12:49.971Z,17.15
2022-11-03T17:15:17.567Z,12.68
2022-11-03T17:17:44.658Z,14.75
2022-11-03T17:20:12.327Z,9.80
2022-11-03T17:22:40.294Z,8.20
2022-11-03T17:25:09.855Z,5.88
2022-11-03T17:27:50.055Z,9.50
2022-11-03T17:30:43.968Z,9.80
2022-11-03T17:33:17.891Z,10.55
2022-11-03T17:35:46.776Z,8.35
2022-11-03T17:38:17.444Z,9.52
2022-11-03T17:40:48.590Z,6.68
2022-11-03T17:45:48.900Z,27.40
2022-11-03T17:48:16.408Z,10.13
2022-11-03T17:50:48.578Z,12.60
2022-11-03T17:53:25.071Z,20.38
2022-11-03T17:56:23.375Z,11.13
2022-11-03T17:58:46.128Z,17.20
2022-11-03T18:01:20.483Z,12.43
2022-11-03T18:03:47.939Z,18.77
2022-11-03T18:06:17.271Z,15.65
2022-11-03T18:08:45.128Z,13.82
2022-11-03T18:11:36.076Z,10.13
2022-11-03T18:14:04.006Z,11.48
2022-11-03T18:16:32.038Z,14.25
2022-11-03T18:18:59.169Z,12.93
2022-11-03T18:21:27.380Z,10.88
2022-11-03T18:23:56.006Z,7.70
2022-11-03T18:26:25.256Z,11.65
2022-11-03T18:28:53.180Z,6.43
2022-11-03T18:31:47.668Z,10.40
2022-11-03T18:34:24.572Z,9.73
2022-11-03T18:36:53.058Z,6.18
2022-11-03T18:39:25.781Z,7.93
2022-11-03T18:41:53.371Z,9.70
2022-11-03T18:44:20.460Z,11.43
2022-11-03T18:46:48.755Z,10.75
2022-11-03T18:49:16.396Z,13.38
2022-11-03T18:52:02.071Z,15.32
2022-11-03T18:54:30.604Z,13.55
2022-11-03T18:56:57.916Z,13.18
2022-11-03T18:59:35.325Z,10.60
2022-11-03T19:02:03.056Z,11.68
2022-11-03T19:04:32.257Z,8.77
2022-11-03T19:06:59.715Z,9.57
2022-11-03T19:09:27.499Z,8.48
2022-11-03T19:11:59.676Z,10.43
2022-11-03T19:14:33.494Z,29.95
2022-11-03T19:19:53.774Z,25.08
2022-11-03T19:22:22.652Z,20.63
2022-11-03T19:24:49.953Z,31.92
2022-11-03T19:27:26.943Z,28.13
2022-11-03T19:29:56.306Z,32.13
2022-11-03T19:32:27.687Z,30.42
2022-11-03T19:35:00.913Z,28.80
2022-11-03T19:37:35.123Z,27.13
2022-11-03T19:40:06.319Z,24.98
2022-11-03T19:42:37.218Z,29.65
2022-11-03T19:45:16.204Z,23.10
2022-11-03T19:48:26.354Z,25.10
2022-11-03T19:50:53.912Z,34.95
2022-11-03T19:53:23.939Z,24.52
2022-11-03T19:55:51.281Z,28.58
2022-11-03T19:58:23.688Z,23.70
2022-11-03T20:00:51.850Z,24.27
2022-11-03T20:03:19.507Z,18.20
2022-11-03T20:05:49.744Z,18.08
2022-11-03T20:08:23.630Z,11.40
2022-11-03T20:10:51.346Z,15.05
2022-11-03T20:13:27.259Z,11.82
2022-11-03T20:16:00.639Z,12.45
2022-11-03T20:18:31.561Z,8.10
2022-11-03T20:20:58.672Z,13.20
2022-11-03T20:23:31.579Z,8.50
2022-11-03T20:25:59.558Z,7.47
2022-11-03T20:28:29.751Z,10.40
2022-11-03T20:30:57.933Z,7.47
2022-11-03T20:33:25.793Z,9.40
2022-11-03T20:35:54.588Z,7.00
2022-11-03T20:38:23.354Z,5.80
2022-11-03T20:40:59.187Z,6.80
2022-11-03T20:43:41.251Z,7.85
2022-11-03T20:46:24.734Z,5.75
2022-11-03T20:48:52.966Z,8.70
2022-11-03T20:51:23.158Z,4.78
2022-11-03T20:53:51.107Z,4.00
2022-11-03T20:56:22.429Z,5.28
2022-11-03T20:58:49.753Z,5.43
2022-11-03T21:01:24.999Z,5.88
2022-11-03T21:03:59.470Z,7.75
2022-11-03T21:06:29.034Z,14.00
2022-11-03T21:08:56.621Z,6.07
2022-11-03T21:11:29.875Z,6.68
2022-11-03T21:14:13.652Z,4.55
2022-11-03T21:16:59.697Z,7.80
2022-11-03T21:19:47.888Z,4.90
2022-11-03T21:22:38.332Z,3.50
2022-11-03T21:25:13.273Z,3.63
2022-11-03T21:27:42.235Z,4.03
2022-11-03T21:30:12.665Z,4.13
2022-11-03T21:32:39.625Z,3.93
2022-11-03T21:35:07.195Z,4.53
2022-11-03T21:37:34.497Z,2.80
2022-11-03T21:40:01.672Z,4.22
2022-11-03T21:42:47.130Z,3.47
2022-11-03T21:45:15.134Z,3.75
2022-11-03T21:48:03.194Z,3.22
2022-11-03T21:50:30.299Z,2.28
2022-11-03T21:53:00.511Z,4.43
2022-11-03T21:55:28.883Z,2.83
2022-11-03T21:57:56.214Z,4.50
2022-11-03T22:00:23.515Z,2.97
2022-11-03T22:02:50.964Z,4.72
2022-11-03T22:05:18.198Z,3.22
2022-11-03T22:07:45.520Z,2.50
2022-11-03T22:10:12.820Z,3.53
2022-11-03T22:12:40.310Z,2.83
2022-11-03T22:15:26.487Z,2.25
2022-11-03T22:18:04.889Z,3.55
2022-11-03T22:20:50.988Z,2.15
2022-11-03T22:23:36.999Z,3.17
2022-11-03T22:26:22.712Z,2.55
2022-11-03T22:29:12.672Z,2.42
2022-11-03T22:31:42.647Z,2.38
2022-11-03T22:34:28.319Z,2.53
2022-11-03T22:36:55.499Z,2.08
2022-11-03T22:39:41.315Z,3.50
2022-11-03T22:42:30.239Z,1.40
2022-11-03T22:45:15.723Z,3.55
2022-11-03T22:47:42.701Z,3.50
2022-11-03T22:50:10.483Z,1.73
2022-11-03T22:52:37.640Z,1.65
2022-11-03T22:55:04.992Z,2.08
2022-11-03T22:57:32.199Z,2.67
2022-11-03T22:59:59.852Z,3.15
2022-11-03T23:02:26.939Z,2.40
2022-11-03T23:04:54.363Z,2.72
2022-11-03T23:07:21.401Z,1.63
2022-11-03T23:09:48.371Z,2.70
2022-11-03T23:12:15.378Z,2.17
2022-11-03T23:15:00.956Z,2.78
2022-11-03T23:17:48.796Z,3.05
2022-11-03T23:20:34.298Z,2.05
2022-11-03T23:23:01.327Z,2.75
2022-11-03T23:25:28.217Z,2.03
2022-11-03T23:27:55.196Z,2.25
2022-11-03T23:30:22.248Z,3.65
2022-11-03T23:32:49.134Z,2.75
2022-11-03T23:35:17.185Z,1.77
2022-11-03T23:37:44.174Z,1.92
2022-11-03T23:40:13.182Z,2.00
2022-11-03T23:42:42.731Z,2.38
2022-11-03T23:45:28.389Z,2.38
2022-11-03T23:48:13.939Z,2.78
2022-11-03T23:50:43.649Z,2.22
2022-11-03T23:53:10.526Z,1.65
2022-11-03T23:55:57.383Z,2.67
2022-11-03T23:58:24.215Z,3.50
